sensor_id;sensor_type;location;lat;lon;timestamp;P1;durP1;ratioP1;P2;durP2;ratioP2
22916;SDS011;11624;53.250;7.456;2023-11-25T00:01:58;9.53;;;2.10;;
22916;SDS011;11624;53.250;7.456;2023-11-25T00:04:26;10.17;;;2.40;;
22916;SDS011;11624;53.250;7.456;2023-11-25T00:06:55;9.00;;;1.87;;
22916;SDS011;11624;53.250;7.456;2023-11-25T00:09:23;14.83;;;2.27;;
22916;SDS011;11624;53.250;7.456;2023-11-25T00:11:52;10.43;;;2.43;;
22916;SDS011;11624;53.250;7.456;2023-11-25T00:14:20;13.50;;;2.30;;
22916;SDS011;11624;53.250;7.456;2023-11-25T00:16:50;11.33;;;2.43;;
22916;SDS011;11624;53.250;7.456;2023-11-25T00:19:19;13.20;;;2.10;;
22916;SDS011;11624;53.250;7.456;2023-11-25T00:21:47;8.20;;;1.90;;
22916;SDS011;11624;53.250;7.456;2023-11-25T00:24:16;6.30;;;1.40;;
22916;SDS011;11624;53.250;7.456;2023-11-25T00:26:44;6.03;;;1.77;;
22916;SDS011;11624;53.250;7.456;2023-11-25T00:29:13;11.87;;;1.97;;
22916;SDS011;11624;53.250;7.456;2023-11-25T00:31:42;10.63;;;2.17;;
22916;SDS011;11624;53.250;7.456;2023-11-25T00:34:12;10.27;;;1.80;;
22916;SDS011;11624;53.250;7.456;2023-11-25T00:36:41;6.83;;;1.37;;
22916;SDS011;11624;53.250;7.456;2023-11-25T00:39:09;7.87;;;1.40;;
22916;SDS011;11624;53.250;7.456;2023-11-25T00:41:38;10.37;;;1.80;;
22916;SDS011;11624;53.250;7.456;2023-11-25T00:44:06;12.33;;;1.60;;
22916;SDS011;11624;53.250;7.456;2023-11-25T00:46:35;10.23;;;1.27;;
22916;SDS011;11624;53.250;7.456;2023-11-25T00:49:05;6.60;;;1.40;;
22916;SDS011;11624;53.250;7.456;2023-11-25T00:51:36;6.67;;;1.57;;
22916;SDS011;11624;53.250;7.456;2023-11-25T00:54:05;13.20;;;1.63;;
22916;SDS011;11624;53.250;7.456;2023-11-25T00:56:34;12.27;;;1.60;;
22916;SDS011;11624;53.250;7.456;2023-11-25T00:59:03;12.73;;;2.07;;
22916;SDS011;11624;53.250;7.456;2023-11-25T01:01:31;11.17;;;1.57;;
22916;SDS011;11624;53.250;7.456;2023-11-25T01:04:02;12.77;;;1.73;;
22916;SDS011;11624;53.250;7.456;2023-11-25T01:06:31;7.87;;;1.50;;
22916;SDS011;11624;53.250;7.456;2023-11-25T01:09:01;7.43;;;1.30;;
22916;SDS011;11624;53.250;7.456;2023-11-25T01:11:31;8.60;;;1.50;;
22916;SDS011;11624;53.250;7.456;2023-11-25T01:13:59;11.77;;;1.63;;
22916;SDS011;11624;53.250;7.456;2023-11-25T01:16:27;9.77;;;1.73;;
22916;SDS011;11624;53.250;7.456;2023-11-25T01:18:56;8.30;;;1.53;;
22916;SDS011;11624;53.250;7.456;2023-11-25T01:21:24;11.23;;;1.80;;
22916;SDS011;11624;53.250;7.456;2023-11-25T01:23:53;9.47;;;1.33;;
22916;SDS011;11624;53.250;7.456;2023-11-25T01:26:23;13.10;;;1.90;;
22916;SDS011;11624;53.250;7.456;2023-11-25T01:28:52;17.70;;;2.03;;
22916;SDS011;11624;53.250;7.456;2023-11-25T01:31:20;13.43;;;1.67;;
22916;SDS011;11624;53.250;7.456;2023-11-25T01:33:48;7.10;;;1.80;;
22916;SDS011;11624;53.250;7.456;2023-11-25T01:36:17;15.17;;;2.00;;
22916;SDS011;11624;53.250;7.456;2023-11-25T01:38:46;17.27;;;2.40;;
22916;SDS011;11624;53.250;7.456;2023-11-25T01:41:15;16.90;;;2.27;;
22916;SDS011;11624;53.250;7.456;2023-11-25T01:43:45;12.57;;;2.13;;
22916;SDS011;11624;53.250;7.456;2023-11-25T01:46:16;15.10;;;2.30;;
22916;SDS011;11624;53.250;7.456;2023-11-25T01:48:53;16.83;;;2.63;;
22916;SDS011;11624;53.250;7.456;2023-11-25T01:51:22;19.80;;;2.20;;
22916;SDS011;11624;53.250;7.456;2023-11-25T01:53:52;16.80;;;2.20;;
22916;SDS011;11624;53.250;7.456;2023-11-25T01:56:20;14.93;;;2.10;;
22916;SDS011;11624;53.250;7.456;2023-11-25T01:58:52;13.40;;;2.60;;
22916;SDS011;11624;53.250;7.456;2023-11-25T02:01:23;16.07;;;2.27;;
22916;SDS011;11624;53.250;7.456;2023-11-25T02:03:53;14.93;;;1.87;;
22916;SDS011;11624;53.250;7.456;2023-11-25T02:06:22;13.53;;;1.60;;
22916;SDS011;11624;53.250;7.456;2023-11-25T02:08:52;12.63;;;1.60;;
22916;SDS011;11624;53.250;7.456;2023-11-25T02:11:20;13.37;;;1.80;;
22916;SDS011;11624;53.250;7.456;2023-11-25T02:13:49;13.63;;;2.23;;
22916;SDS011;11624;53.250;7.456;2023-11-25T02:16:19;11.37;;;1.50;;
22916;SDS011;11624;53.250;7.456;2023-11-25T02:18:48;13.63;;;2.00;;
22916;SDS011;11624;53.250;7.456;2023-11-25T02:21:18;11.30;;;1.43;;
22916;SDS011;11624;53.250;7.456;2023-11-25T02:23:49;8.90;;;1.43;;
22916;SDS011;11624;53.250;7.456;2023-11-25T02:26:18;9.50;;;1.40;;
22916;SDS011;11624;53.250;7.456;2023-11-25T02:28:47;16.53;;;1.90;;
22916;SDS011;11624;53.250;7.456;2023-11-25T02:31:15;12.10;;;1.60;;
22916;SDS011;11624;53.250;7.456;2023-11-25T02:33:44;10.37;;;1.87;;
22916;SDS011;11624;53.250;7.456;2023-11-25T02:36:13;11.77;;;1.80;;
22916;SDS011;11624;53.250;7.456;2023-11-25T02:38:41;9.33;;;1.33;;
22916;SDS011;11624;53.250;7.456;2023-11-25T02:41:11;14.83;;;2.10;;
22916;SDS011;11624;53.250;7.456;2023-11-25T02:43:40;10.30;;;1.90;;
22916;SDS011;11624;53.250;7.456;2023-11-25T02:46:08;10.23;;;1.97;;
22916;SDS011;11624;53.250;7.456;2023-11-25T02:48:37;17.03;;;2.07;;
22916;SDS011;11624;53.250;7.456;2023-11-25T02:51:06;8.77;;;1.30;;
22916;SDS011;11624;53.250;7.456;2023-11-25T02:53:36;7.40;;;1.20;;
22916;SDS011;11624;53.250;7.456;2023-11-25T02:56:05;9.13;;;2.07;;
22916;SDS011;11624;53.250;7.456;2023-11-25T02:58:35;14.43;;;1.70;;
22916;SDS011;11624;53.250;7.456;2023-11-25T03:01:04;7.83;;;1.50;;
22916;SDS011;11624;53.250;7.456;2023-11-25T03:03:33;9.40;;;2.20;;
22916;SDS011;11624;53.250;7.456;2023-11-25T03:06:08;11.03;;;1.83;;
22916;SDS011;11624;53.250;7.456;2023-11-25T03:08:37;8.53;;;1.63;;
22916;SDS011;11624;53.250;7.456;2023-11-25T03:11:06;7.33;;;1.37;;
22916;SDS011;11624;53.250;7.456;2023-11-25T03:13:40;8.83;;;1.70;;
22916;SDS011;11624;53.250;7.456;2023-11-25T03:16:09;12.87;;;1.97;;
22916;SDS011;11624;53.250;7.456;2023-11-25T03:18:38;23.97;;;2.10;;
22916;SDS011;11624;53.250;7.456;2023-11-25T03:21:07;10.77;;;1.67;;
22916;SDS011;11624;53.250;7.456;2023-11-25T03:23:36;8.90;;;1.27;;
22916;SDS011;11624;53.250;7.456;2023-11-25T03:26:05;10.27;;;1.60;;
22916;SDS011;11624;53.250;7.456;2023-11-25T03:28:38;7.87;;;2.00;;
22916;SDS011;11624;53.250;7.456;2023-11-25T03:31:10;10.13;;;1.43;;
22916;SDS011;11624;53.250;7.456;2023-11-25T03:33:39;5.80;;;1.33;;
22916;SDS011;11624;53.250;7.456;2023-11-25T03:36:07;6.97;;;1.50;;
22916;SDS011;11624;53.250;7.456;2023-11-25T03:38:36;15.87;;;2.17;;
22916;SDS011;11624;53.250;7.456;2023-11-25T03:41:04;14.03;;;2.27;;
22916;SDS011;11624;53.250;7.456;2023-11-25T03:43:33;11.33;;;1.50;;
22916;SDS011;11624;53.250;7.456;2023-11-25T03:46:03;9.90;;;1.20;;
22916;SDS011;11624;53.250;7.456;2023-11-25T03:48:31;11.03;;;2.03;;
22916;SDS011;11624;53.250;7.456;2023-11-25T03:51:01;5.17;;;0.93;;
22916;SDS011;11624;53.250;7.456;2023-11-25T03:53:31;2.67;;;0.83;;
22916;SDS011;11624;53.250;7.456;2023-11-25T03:55:59;6.27;;;0.77;;
22916;SDS011;11624;53.250;7.456;2023-11-25T03:58:28;6.50;;;0.77;;
22916;SDS011;11624;53.250;7.456;2023-11-25T04:00:56;6.80;;;1.13;;
22916;SDS011;11624;53.250;7.456;2023-11-25T04:03:26;5.57;;;1.17;;
22916;SDS011;11624;53.250;7.456;2023-11-25T04:05:54;5.90;;;0.77;;
22916;SDS011;11624;53.250;7.456;2023-11-25T04:08:24;5.70;;;1.03;;
22916;SDS011;11624;53.250;7.456;2023-11-25T04:10:52;7.80;;;1.23;;
22916;SDS011;11624;53.250;7.456;2023-11-25T04:13:21;5.13;;;1.23;;
22916;SDS011;11624;53.250;7.456;2023-11-25T04:15:49;7.30;;;1.00;;
22916;SDS011;11624;53.250;7.456;2023-11-25T04:18:18;5.07;;;0.90;;
22916;SDS011;11624;53.250;7.456;2023-11-25T04:20:48;7.13;;;1.03;;
22916;SDS011;11624;53.250;7.456;2023-11-25T04:23:17;7.10;;;1.13;;
22916;SDS011;11624;53.250;7.456;2023-11-25T04:25:45;5.60;;;1.20;;
22916;SDS011;11624;53.250;7.456;2023-11-25T04:28:15;9.13;;;1.47;;
22916;SDS011;11624;53.250;7.456;2023-11-25T04:30:44;9.67;;;1.30;;
22916;SDS011;11624;53.250;7.456;2023-11-25T04:33:12;6.87;;;1.03;;
22916;SDS011;11624;53.250;7.456;2023-11-25T04:35:41;8.87;;;1.37;;
22916;SDS011;11624;53.250;7.456;2023-11-25T04:38:11;9.10;;;1.40;;
22916;SDS011;11624;53.250;7.456;2023-11-25T04:40:40;10.77;;;1.37;;
22916;SDS011;11624;53.250;7.456;2023-11-25T04:43:09;15.63;;;1.90;;
22916;SDS011;11624;53.250;7.456;2023-11-25T04:45:37;13.80;;;2.00;;
22916;SDS011;11624;53.250;7.456;2023-11-25T04:48:06;7.80;;;1.40;;
22916;SDS011;11624;53.250;7.456;2023-11-25T04:50:35;7.60;;;1.47;;
22916;SDS011;11624;53.250;7.456;2023-11-25T04:53:03;7.33;;;0.90;;
22916;SDS011;11624;53.250;7.456;2023-11-25T04:55:33;3.80;;;1.03;;
22916;SDS011;11624;53.250;7.456;2023-11-25T04:58:02;5.93;;;1.02;;
22916;SDS011;11624;53.250;7.456;2023-11-25T05:00:30;4.50;;;0.67;;
22916;SDS011;11624;53.250;7.456;2023-11-25T05:02:59;0.20;;;0.10;;
22916;SDS011;11624;53.250;7.456;2023-11-25T05:05:27;2.20;;;0.40;;
22916;SDS011;11624;53.250;7.456;2023-11-25T05:07:56;1.30;;;0.20;;
22916;SDS011;11624;53.250;7.456;2023-11-25T05:10:24;1.93;;;0.30;;
22916;SDS011;11624;53.250;7.456;2023-11-25T05:12:56;2.05;;;0.20;;
22916;SDS011;11624;53.250;7.456;2023-11-25T05:15:25;3.45;;;0.40;;
22916;SDS011;11624;53.250;7.456;2023-11-25T05:17:53;6.60;;;0.47;;
22916;SDS011;11624;53.250;7.456;2023-11-25T05:20:22;3.97;;;0.40;;
22916;SDS011;11624;53.250;7.456;2023-11-25T05:22:50;1.85;;;0.30;;
22916;SDS011;11624;53.250;7.456;2023-11-25T05:25:19;3.00;;;0.50;;
22916;SDS011;11624;53.250;7.456;2023-11-25T05:27:49;6.80;;;0.60;;
22916;SDS011;11624;53.250;7.456;2023-11-25T05:30:19;1.00;;;0.40;;
22916;SDS011;11624;53.250;7.456;2023-11-25T05:32:49;5.63;;;0.80;;
22916;SDS011;11624;53.250;7.456;2023-11-25T05:35:17;4.17;;;0.93;;
22916;SDS011;11624;53.250;7.456;2023-11-25T05:37:46;6.05;;;1.05;;
22916;SDS011;11624;53.250;7.456;2023-11-25T05:40:15;8.70;;;1.67;;
22916;SDS011;11624;53.250;7.456;2023-11-25T05:42:43;5.97;;;1.07;;
22916;SDS011;11624;53.250;7.456;2023-11-25T05:45:22;8.95;;;1.13;;
22916;SDS011;11624;53.250;7.456;2023-11-25T05:47:54;3.57;;;0.90;;
22916;SDS011;11624;53.250;7.456;2023-11-25T05:50:23;2.72;;;0.60;;
22916;SDS011;11624;53.250;7.456;2023-11-25T05:52:53;3.57;;;0.57;;
22916;SDS011;11624;53.250;7.456;2023-11-25T05:55:23;6.37;;;1.10;;
22916;SDS011;11624;53.250;7.456;2023-11-25T05:57:53;6.63;;;1.17;;
22916;SDS011;11624;53.250;7.456;2023-11-25T06:00:27;10.13;;;1.67;;
22916;SDS011;11624;53.250;7.456;2023-11-25T06:02:56;6.30;;;1.40;;
22916;SDS011;11624;53.250;7.456;2023-11-25T06:05:25;6.13;;;1.10;;
22916;SDS011;11624;53.250;7.456;2023-11-25T06:07:54;9.40;;;1.60;;
22916;SDS011;11624;53.250;7.456;2023-11-25T06:10:23;8.75;;;1.40;;
22916;SDS011;11624;53.250;7.456;2023-11-25T06:12:51;9.43;;;1.60;;
22916;SDS011;11624;53.250;7.456;2023-11-25T06:15:20;7.03;;;1.43;;
22916;SDS011;11624;53.250;7.456;2023-11-25T06:17:51;5.82;;;1.60;;
22916;SDS011;11624;53.250;7.456;2023-11-25T06:20:19;11.27;;;1.80;;
22916;SDS011;11624;53.250;7.456;2023-11-25T06:22:52;10.68;;;1.63;;
22916;SDS011;11624;53.250;7.456;2023-11-25T06:25:20;6.47;;;1.35;;
22916;SDS011;11624;53.250;7.456;2023-11-25T06:27:50;13.90;;;1.77;;
22916;SDS011;11624;53.250;7.456;2023-11-25T06:30:18;14.43;;;1.60;;
22916;SDS011;11624;53.250;7.456;2023-11-25T06:32:48;10.80;;;1.50;;
22916;SDS011;11624;53.250;7.456;2023-11-25T06:35:18;14.52;;;2.03;;
22916;SDS011;11624;53.250;7.456;2023-11-25T06:37:49;12.20;;;1.83;;
22916;SDS011;11624;53.250;7.456;2023-11-25T06:40:18;15.75;;;1.80;;
22916;SDS011;11624;53.250;7.456;2023-11-25T06:42:47;15.38;;;1.83;;
22916;SDS011;11624;53.250;7.456;2023-11-25T06:45:16;13.23;;;1.83;;
22916;SDS011;11624;53.250;7.456;2023-11-25T06:47:44;7.00;;;1.35;;
22916;SDS011;11624;53.250;7.456;2023-11-25T06:50:18;9.00;;;1.73;;
22916;SDS011;11624;53.250;7.456;2023-11-25T06:52:47;13.60;;;1.98;;
22916;SDS011;11624;53.250;7.456;2023-11-25T06:55:16;9.85;;;1.88;;
22916;SDS011;11624;53.250;7.456;2023-11-25T06:57:45;6.60;;;1.52;;
22916;SDS011;11624;53.250;7.456;2023-11-25T07:00:16;8.55;;;1.58;;
22916;SDS011;11624;53.250;7.456;2023-11-25T07:02:45;14.00;;;1.92;;
22916;SDS011;11624;53.250;7.456;2023-11-25T07:05:13;9.32;;;1.23;;
22916;SDS011;11624;53.250;7.456;2023-11-25T07:07:43;10.82;;;1.83;;
22916;SDS011;11624;53.250;7.456;2023-11-25T07:10:12;14.85;;;1.58;;
22916;SDS011;11624;53.250;7.456;2023-11-25T07:12:41;7.25;;;1.50;;
22916;SDS011;11624;53.250;7.456;2023-11-25T07:15:10;12.52;;;1.35;;
22916;SDS011;11624;53.250;7.456;2023-11-25T07:17:38;11.80;;;2.10;;
22916;SDS011;11624;53.250;7.456;2023-11-25T07:20:08;14.00;;;1.67;;
22916;SDS011;11624;53.250;7.456;2023-11-25T07:22:40;7.70;;;1.77;;
22916;SDS011;11624;53.250;7.456;2023-11-25T07:25:10;6.73;;;1.20;;
22916;SDS011;11624;53.250;7.456;2023-11-25T07:27:40;15.82;;;1.85;;
22916;SDS011;11624;53.250;7.456;2023-11-25T07:30:11;8.70;;;1.15;;
22916;SDS011;11624;53.250;7.456;2023-11-25T07:32:40;7.55;;;1.05;;
22916;SDS011;11624;53.250;7.456;2023-11-25T07:35:11;6.83;;;1.23;;
22916;SDS011;11624;53.250;7.456;2023-11-25T07:37:39;7.97;;;1.03;;
22916;SDS011;11624;53.250;7.456;2023-11-25T07:40:08;11.30;;;1.20;;
22916;SDS011;11624;53.250;7.456;2023-11-25T07:42:44;9.73;;;1.37;;
22916;SDS011;11624;53.250;7.456;2023-11-25T07:45:15;7.07;;;1.40;;
22916;SDS011;11624;53.250;7.456;2023-11-25T07:47:45;7.50;;;1.63;;
22916;SDS011;11624;53.250;7.456;2023-11-25T07:50:14;7.63;;;1.33;;
22916;SDS011;11624;53.250;7.456;2023-11-25T07:52:44;8.80;;;1.60;;
22916;SDS011;11624;53.250;7.456;2023-11-25T07:55:14;7.00;;;1.27;;
22916;SDS011;11624;53.250;7.456;2023-11-25T07:57:45;14.97;;;2.23;;
22916;SDS011;11624;53.250;7.456;2023-11-25T08:00:15;11.90;;;1.83;;
22916;SDS011;11624;53.250;7.456;2023-11-25T08:02:46;9.73;;;1.53;;
22916;SDS011;11624;53.250;7.456;2023-11-25T08:05:15;9.93;;;1.27;;
22916;SDS011;11624;53.250;7.456;2023-11-25T08:07:50;9.20;;;1.27;;
22916;SDS011;11624;53.250;7.456;2023-11-25T08:10:20;11.27;;;1.23;;
22916;SDS011;11624;53.250;7.456;2023-11-25T08:12:51;10.93;;;1.40;;
22916;SDS011;11624;53.250;7.456;2023-11-25T08:15:24;8.93;;;1.50;;
22916;SDS011;11624;53.250;7.456;2023-11-25T08:17:53;15.20;;;1.88;;
22916;SDS011;11624;53.250;7.456;2023-11-25T08:20:22;7.40;;;1.55;;
22916;SDS011;11624;53.250;7.456;2023-11-25T08:22:51;12.82;;;1.75;;
22916;SDS011;11624;53.250;7.456;2023-11-25T08:25:20;17.75;;;1.70;;
22916;SDS011;11624;53.250;7.456;2023-11-25T08:27:49;8.30;;;1.60;;
22916;SDS011;11624;53.250;7.456;2023-11-25T08:30:19;8.45;;;1.58;;
22916;SDS011;11624;53.250;7.456;2023-11-25T08:32:48;13.95;;;2.08;;
22916;SDS011;11624;53.250;7.456;2023-11-25T08:35:16;10.80;;;1.95;;
22916;SDS011;11624;53.250;7.456;2023-11-25T08:37:46;5.57;;;1.17;;
22916;SDS011;11624;53.250;7.456;2023-11-25T08:40:15;9.53;;;1.40;;
22916;SDS011;11624;53.250;7.456;2023-11-25T08:42:44;7.90;;;2.45;;
22916;SDS011;11624;53.250;7.456;2023-11-25T08:45:15;8.10;;;1.48;;
22916;SDS011;11624;53.250;7.456;2023-11-25T08:47:43;8.18;;;1.50;;
22916;SDS011;11624;53.250;7.456;2023-11-25T08:50:12;7.38;;;0.93;;
22916;SDS011;11624;53.250;7.456;2023-11-25T08:52:43;11.80;;;1.70;;
22916;SDS011;11624;53.250;7.456;2023-11-25T08:55:16;11.65;;;1.73;;
22916;SDS011;11624;53.250;7.456;2023-11-25T08:57:47;11.55;;;1.65;;
22916;SDS011;11624;53.250;7.456;2023-11-25T09:00:17;13.77;;;2.13;;
22916;SDS011;11624;53.250;7.456;2023-11-25T09:02:48;10.83;;;1.90;;
22916;SDS011;11624;53.250;7.456;2023-11-25T09:05:20;8.65;;;1.08;;
22916;SDS011;11624;53.250;7.456;2023-11-25T09:07:50;12.25;;;1.77;;
22916;SDS011;11624;53.250;7.456;2023-11-25T09:10:19;14.88;;;1.95;;
22916;SDS011;11624;53.250;7.456;2023-11-25T09:12:48;7.85;;;1.23;;
22916;SDS011;11624;53.250;7.456;2023-11-25T09:15:20;12.18;;;1.67;;
22916;SDS011;11624;53.250;7.456;2023-11-25T09:17:49;10.80;;;1.38;;
22916;SDS011;11624;53.250;7.456;2023-11-25T09:20:19;11.25;;;1.33;;
22916;SDS011;11624;53.250;7.456;2023-11-25T09:22:49;11.57;;;1.50;;
22916;SDS011;11624;53.250;7.456;2023-11-25T09:25:19;12.20;;;1.90;;
22916;SDS011;11624;53.250;7.456;2023-11-25T09:27:48;11.18;;;1.67;;
22916;SDS011;11624;53.250;7.456;2023-11-25T09:30:19;9.10;;;1.30;;
22916;SDS011;11624;53.250;7.456;2023-11-25T09:32:49;13.70;;;1.95;;
22916;SDS011;11624;53.250;7.456;2023-11-25T09:35:18;11.23;;;1.92;;
22916;SDS011;11624;53.250;7.456;2023-11-25T09:37:47;5.30;;;1.27;;
22916;SDS011;11624;53.250;7.456;2023-11-25T09:40:17;12.18;;;1.63;;
22916;SDS011;11624;53.250;7.456;2023-11-25T09:42:47;10.27;;;1.52;;
22916;SDS011;11624;53.250;7.456;2023-11-25T09:45:16;7.82;;;1.40;;
22916;SDS011;11624;53.250;7.456;2023-11-25T09:47:49;9.52;;;1.73;;
22916;SDS011;11624;53.250;7.456;2023-11-25T09:50:18;8.25;;;1.40;;
22916;SDS011;11624;53.250;7.456;2023-11-25T09:52:49;11.30;;;1.38;;
22916;SDS011;11624;53.250;7.456;2023-11-25T09:55:19;9.85;;;1.55;;
22916;SDS011;11624;53.250;7.456;2023-11-25T09:57:53;10.30;;;1.67;;
22916;SDS011;11624;53.250;7.456;2023-11-25T10:00:25;8.82;;;1.65;;
22916;SDS011;11624;53.250;7.456;2023-11-25T10:02:57;9.32;;;1.73;;
22916;SDS011;11624;53.250;7.456;2023-11-25T10:05:26;6.10;;;1.40;;
22916;SDS011;11624;53.250;7.456;2023-11-25T10:07:57;8.20;;;1.50;;
22916;SDS011;11624;53.250;7.456;2023-11-25T10:10:25;8.73;;;1.70;;
22916;SDS011;11624;53.250;7.456;2023-11-25T10:12:55;9.23;;;1.35;;
22916;SDS011;11624;53.250;7.456;2023-11-25T10:15:24;14.05;;;1.65;;
22916;SDS011;11624;53.250;7.456;2023-11-25T10:17:53;8.75;;;1.70;;
22916;SDS011;11624;53.250;7.456;2023-11-25T10:20:23;6.38;;;1.15;;
22916;SDS011;11624;53.250;7.456;2023-11-25T10:22:52;6.68;;;1.23;;
22916;SDS011;11624;53.250;7.456;2023-11-25T10:25:25;13.13;;;2.72;;
22916;SDS011;11624;53.250;7.456;2023-11-25T10:27:54;9.65;;;1.65;;
22916;SDS011;11624;53.250;7.456;2023-11-25T10:30:23;10.50;;;1.73;;
22916;SDS011;11624;53.250;7.456;2023-11-25T10:32:52;11.55;;;2.17;;
22916;SDS011;11624;53.250;7.456;2023-11-25T10:35:25;9.15;;;1.73;;
22916;SDS011;11624;53.250;7.456;2023-11-25T10:37:54;9.00;;;1.58;;
22916;SDS011;11624;53.250;7.456;2023-11-25T10:40:22;9.90;;;1.98;;
22916;SDS011;11624;53.250;7.456;2023-11-25T10:42:52;8.88;;;1.30;;
22916;SDS011;11624;53.250;7.456;2023-11-25T10:45:21;10.43;;;2.10;;
22916;SDS011;11624;53.250;7.456;2023-11-25T10:47:54;8.70;;;1.52;;
22916;SDS011;11624;53.250;7.456;2023-11-25T10:50:26;10.60;;;1.73;;
22916;SDS011;11624;53.250;7.456;2023-11-25T10:52:55;9.55;;;1.77;;
22916;SDS011;11624;53.250;7.456;2023-11-25T10:55:25;12.43;;;1.70;;
22916;SDS011;11624;53.250;7.456;2023-11-25T10:57:56;12.95;;;1.60;;
22916;SDS011;11624;53.250;7.456;2023-11-25T11:00:28;9.52;;;1.73;;
22916;SDS011;11624;53.250;7.456;2023-11-25T11:02:59;14.27;;;2.03;;
22916;SDS011;11624;53.250;7.456;2023-11-25T11:05:36;12.63;;;1.80;;
22916;SDS011;11624;53.250;7.456;2023-11-25T11:08:11;11.60;;;2.00;;
22916;SDS011;11624;53.250;7.456;2023-11-25T11:10:47;8.02;;;1.52;;
22916;SDS011;11624;53.250;7.456;2023-11-25T11:13:28;10.20;;;1.52;;
22916;SDS011;11624;53.250;7.456;2023-11-25T11:16:00;8.30;;;1.67;;
22916;SDS011;11624;53.250;7.456;2023-11-25T11:18:34;7.68;;;1.45;;
22916;SDS011;11624;53.250;7.456;2023-11-25T11:21:09;10.15;;;1.40;;
22916;SDS011;11624;53.250;7.456;2023-11-25T11:23:41;11.77;;;2.08;;
22916;SDS011;11624;53.250;7.456;2023-11-25T11:26:14;9.20;;;1.33;;
22916;SDS011;11624;53.250;7.456;2023-11-25T11:28:56;12.70;;;1.80;;
22916;SDS011;11624;53.250;7.456;2023-11-25T11:34:26;14.13;;;2.47;;
22916;SDS011;11624;53.250;7.456;2023-11-25T11:36:57;7.55;;;1.48;;
22916;SDS011;11624;53.250;7.456;2023-11-25T11:39:33;6.13;;;1.40;;
22916;SDS011;11624;53.250;7.456;2023-11-25T11:42:24;9.68;;;1.55;;
22916;SDS011;11624;53.250;7.456;2023-11-25T11:44:58;8.05;;;1.50;;
22916;SDS011;11624;53.250;7.456;2023-11-25T11:47:38;5.18;;;1.30;;
22916;SDS011;11624;53.250;7.456;2023-11-25T11:50:07;9.98;;;1.48;;
22916;SDS011;11624;53.250;7.456;2023-11-25T11:52:44;9.85;;;1.45;;
22916;SDS011;11624;53.250;7.456;2023-11-25T11:55:40;7.82;;;1.40;;
22916;SDS011;11624;53.250;7.456;2023-11-25T11:58:11;13.13;;;1.65;;
22916;SDS011;11624;53.250;7.456;2023-11-25T12:00:41;6.88;;;1.10;;
22916;SDS011;11624;53.250;7.456;2023-11-25T12:03:13;8.23;;;1.48;;
22916;SDS011;11624;53.250;7.456;2023-11-25T12:05:42;6.10;;;1.23;;
22916;SDS011;11624;53.250;7.456;2023-11-25T12:08:12;12.77;;;2.25;;
22916;SDS011;11624;53.250;7.456;2023-11-25T12:10:41;9.40;;;1.30;;
22916;SDS011;11624;53.250;7.456;2023-11-25T12:13:10;6.95;;;1.30;;
22916;SDS011;11624;53.250;7.456;2023-11-25T12:15:39;8.63;;;1.38;;
22916;SDS011;11624;53.250;7.456;2023-11-25T12:18:09;9.50;;;1.40;;
22916;SDS011;11624;53.250;7.456;2023-11-25T12:20:38;4.50;;;1.00;;
22916;SDS011;11624;53.250;7.456;2023-11-25T12:23:07;7.82;;;1.10;;
22916;SDS011;11624;53.250;7.456;2023-11-25T12:25:37;5.40;;;1.30;;
22916;SDS011;11624;53.250;7.456;2023-11-25T12:28:06;6.68;;;1.15;;
22916;SDS011;11624;53.250;7.456;2023-11-25T12:30:37;7.13;;;1.58;;
22916;SDS011;11624;53.250;7.456;2023-11-25T12:33:08;4.55;;;0.95;;
22916;SDS011;11624;53.250;7.456;2023-11-25T12:35:40;9.65;;;1.17;;
22916;SDS011;11624;53.250;7.456;2023-11-25T12:38:10;3.47;;;1.10;;
22916;SDS011;11624;53.250;7.456;2023-11-25T12:40:43;6.47;;;1.08;;
22916;SDS011;11624;53.250;7.456;2023-11-25T12:43:13;7.43;;;0.80;;
22916;SDS011;11624;53.250;7.456;2023-11-25T12:45:42;7.15;;;1.08;;
22916;SDS011;11624;53.250;7.456;2023-11-25T12:48:12;4.28;;;0.85;;
22916;SDS011;11624;53.250;7.456;2023-11-25T12:50:58;6.28;;;0.90;;
22916;SDS011;11624;53.250;7.456;2023-11-25T12:53:30;4.25;;;1.33;;
22916;SDS011;11624;53.250;7.456;2023-11-25T12:56:01;6.28;;;1.27;;
22916;SDS011;11624;53.250;7.456;2023-11-25T12:58:30;10.35;;;1.55;;
22916;SDS011;11624;53.250;7.456;2023-11-25T13:01:01;8.98;;;1.27;;
22916;SDS011;11624;53.250;7.456;2023-11-25T13:03:30;7.25;;;1.40;;
22916;SDS011;11624;53.250;7.456;2023-11-25T13:06:00;5.60;;;1.20;;
22916;SDS011;11624;53.250;7.456;2023-11-25T13:08:31;7.43;;;1.30;;
22916;SDS011;11624;53.250;7.456;2023-11-25T13:11:06;5.20;;;1.02;;
22916;SDS011;11624;53.250;7.456;2023-11-25T13:13:37;6.60;;;1.33;;
22916;SDS011;11624;53.250;7.456;2023-11-25T13:16:07;5.22;;;1.17;;
22916;SDS011;11624;53.250;7.456;2023-11-25T13:18:45;3.92;;;0.80;;
22916;SDS011;11624;53.250;7.456;2023-11-25T13:21:14;6.32;;;0.88;;
22916;SDS011;11624;53.250;7.456;2023-11-25T13:23:43;3.97;;;1.42;;
22916;SDS011;11624;53.250;7.456;2023-11-25T13:26:13;7.00;;;1.20;;
22916;SDS011;11624;53.250;7.456;2023-11-25T13:28:43;5.53;;;1.10;;
22916;SDS011;11624;53.250;7.456;2023-11-25T13:31:11;3.33;;;0.85;;
22916;SDS011;11624;53.250;7.456;2023-11-25T13:33:40;5.20;;;1.23;;
22916;SDS011;11624;53.250;7.456;2023-11-25T13:36:08;5.78;;;1.10;;
22916;SDS011;11624;53.250;7.456;2023-11-25T13:38:37;6.95;;;1.20;;
22916;SDS011;11624;53.250;7.456;2023-11-25T13:41:06;4.75;;;1.13;;
22916;SDS011;11624;53.250;7.456;2023-11-25T13:43:36;6.93;;;1.10;;
22916;SDS011;11624;53.250;7.456;2023-11-25T13:46:05;5.25;;;1.10;;
22916;SDS011;11624;53.250;7.456;2023-11-25T13:48:33;6.18;;;1.08;;
22916;SDS011;11624;53.250;7.456;2023-11-25T13:51:02;9.65;;;1.00;;
22916;SDS011;11624;53.250;7.456;2023-11-25T13:53:31;8.35;;;1.17;;
22916;SDS011;11624;53.250;7.456;2023-11-25T13:56:00;5.40;;;1.30;;
22916;SDS011;11624;53.250;7.456;2023-11-25T13:58:28;5.18;;;1.20;;
22916;SDS011;11624;53.250;7.456;2023-11-25T14:00:58;5.80;;;1.20;;
22916;SDS011;11624;53.250;7.456;2023-11-25T14:03:27;3.13;;;0.98;;
22916;SDS011;11624;53.250;7.456;2023-11-25T14:05:56;1.73;;;0.70;;
22916;SDS011;11624;53.250;7.456;2023-11-25T14:08:24;5.18;;;1.00;;
22916;SDS011;11624;53.250;7.456;2023-11-25T14:10:55;5.40;;;1.40;;
22916;SDS011;11624;53.250;7.456;2023-11-25T14:13:23;5.63;;;1.13;;
22916;SDS011;11624;53.250;7.456;2023-11-25T14:15:55;4.45;;;0.85;;
22916;SDS011;11624;53.250;7.456;2023-11-25T14:18:27;5.05;;;0.80;;
22916;SDS011;11624;53.250;7.456;2023-11-25T14:20:55;4.15;;;1.15;;
22916;SDS011;11624;53.250;7.456;2023-11-25T14:23:24;5.82;;;1.08;;
22916;SDS011;11624;53.250;7.456;2023-11-25T14:25:52;5.03;;;1.60;;
22916;SDS011;11624;53.250;7.456;2023-11-25T14:28:21;3.38;;;0.90;;
22916;SDS011;11624;53.250;7.456;2023-11-25T14:30:49;4.50;;;0.93;;
22916;SDS011;11624;53.250;7.456;2023-11-25T14:33:18;6.38;;;1.67;;
22916;SDS011;11624;53.250;7.456;2023-11-25T14:35:48;6.45;;;1.38;;
22916;SDS011;11624;53.250;7.456;2023-11-25T14:38:17;3.83;;;0.82;;
22916;SDS011;11624;53.250;7.456;2023-11-25T14:40:46;5.05;;;1.00;;
22916;SDS011;11624;53.250;7.456;2023-11-25T14:43:15;5.88;;;1.08;;
22916;SDS011;11624;53.250;7.456;2023-11-25T14:45:43;4.25;;;1.13;;
22916;SDS011;11624;53.250;7.456;2023-11-25T14:48:12;3.22;;;0.93;;
22916;SDS011;11624;53.250;7.456;2023-11-25T14:50:40;1.90;;;0.65;;
22916;SDS011;11624;53.250;7.456;2023-11-25T14:53:10;6.28;;;0.93;;
22916;SDS011;11624;53.250;7.456;2023-11-25T14:55:40;5.45;;;1.20;;
22916;SDS011;11624;53.250;7.456;2023-11-25T14:58:09;6.55;;;1.25;;
22916;SDS011;11624;53.250;7.456;2023-11-25T15:00:38;3.72;;;1.20;;
22916;SDS011;11624;53.250;7.456;2023-11-25T15:03:08;9.45;;;2.00;;